createdAt,value
2023-01-06T00:01:12.752Z,0.77
2023-01-06T00:03:39.505Z,0.63
2023-01-06T00:06:07.984Z,0.88
2023-01-06T00:08:35.873Z,0.57
2023-01-06T00:11:10.171Z,0.68
2023-01-06T00:13:37.326Z,2.28
2023-01-06T00:16:08.952Z,0.98
2023-01-06T00:18:35.644Z,1.42
2023-01-06T00:21:02.566Z,0.93
2023-01-06T00:23:29.121Z,0.30
2023-01-06T00:25:55.755Z,0.73
2023-01-06T00:28:22.403Z,6.55
2023-01-06T00:30:48.965Z,21.77
2023-01-06T00:33:15.691Z,21.67
2023-01-06T00:35:42.264Z,26.80
2023-01-06T00:38:08.778Z,24.55
2023-01-06T00:40:36.709Z,18.98
2023-01-06T00:43:03.759Z,17.48
2023-01-06T00:45:31.173Z,13.67
2023-01-06T00:47:57.697Z,9.73
2023-01-06T00:50:24.340Z,7.40
2023-01-06T00:52:51.273Z,7.47
2023-01-06T00:55:17.817Z,5.45
2023-01-06T00:57:44.344Z,1.98
2023-01-06T01:00:12.551Z,1.13
2023-01-06T01:02:39.154Z,0.68
2023-01-06T01:05:05.959Z,1.05
2023-01-06T01:07:32.546Z,0.50
2023-01-06T01:09:59.264Z,0.43
2023-01-06T01:12:25.859Z,0.30
2023-01-06T01:14:53.984Z,1.63
2023-01-06T01:19:53.002Z,0.52
2023-01-06T01:22:19.875Z,0.88
2023-01-06T01:24:46.469Z,0.65
2023-01-06T01:27:13.615Z,2.83
2023-01-06T01:29:40.132Z,0.28
2023-01-06T01:32:07.180Z,1.25
2023-01-06T01:34:34.153Z,0.30
2023-01-06T01:37:01.647Z,0.50
2023-01-06T01:39:29.364Z,1.05
2023-01-06T01:41:57.236Z,0.95
2023-01-06T01:45:05.665Z,0.30
2023-01-06T01:47:38.875Z,0.93
2023-01-06T01:50:16.984Z,1.15
2023-01-06T01:55:12.615Z,3.13
2023-01-06T01:57:49.140Z,0.52
2023-01-06T02:00:17.380Z,1.27
2023-01-06T02:02:44.681Z,1.50
2023-01-06T02:05:20.235Z,5.78
2023-01-06T02:07:47.928Z,1.00
2023-01-06T02:10:18.597Z,0.93
2023-01-06T02:12:48.792Z,1.30
2023-01-06T02:15:22.675Z,1.08
2023-01-06T02:18:03.531Z,1.65
2023-01-06T02:20:46.691Z,0.75
2023-01-06T02:23:28.264Z,1.02
2023-01-06T02:25:55.463Z,1.77
2023-01-06T02:29:00.246Z,0.95
2023-01-06T02:31:58.086Z,0.95
2023-01-06T02:37:11.066Z,0.63
2023-01-06T02:40:09.802Z,0.75
2023-01-06T02:42:42.644Z,0.90
2023-01-06T02:45:21.730Z,0.88
2023-01-06T02:48:20.043Z,1.10
2023-01-06T02:50:56.391Z,1.13
2023-01-06T02:53:34.489Z,0.50
2023-01-06T02:56:03.333Z,0.35
2023-01-06T02:59:00.479Z,0.40
2023-01-06T03:01:35.829Z,1.02
2023-01-06T03:04:07.285Z,0.68
2023-01-06T03:06:36.495Z,0.80
2023-01-06T03:09:05.492Z,1.48
2023-01-06T03:11:39.519Z,0.90
2023-01-06T03:14:35.283Z,0.75
2023-01-06T03:17:02.714Z,0.75
2023-01-06T03:22:00.771Z,2.47
2023-01-06T03:24:28.780Z,0.65
2023-01-06T03:26:55.964Z,0.60
2023-01-06T03:29:23.412Z,0.63
2023-01-06T03:32:08.878Z,0.30
2023-01-06T03:35:04.632Z,0.57
2023-01-06T03:37:48.596Z,0.98
2023-01-06T03:40:40.126Z,0.80
2023-01-06T03:43:21.829Z,1.25
2023-01-06T03:46:15.942Z,0.40
2023-01-06T03:48:58.239Z,0.60
2023-01-06T03:51:43.657Z,0.88
2023-01-06T03:54:35.034Z,1.17
2023-01-06T03:57:16.761Z,0.40
2023-01-06T04:00:13.568Z,0.60
2023-01-06T04:02:41.505Z,1.08
2023-01-06T04:05:17.003Z,0.47
2023-01-06T04:07:46.451Z,1.27
2023-01-06T04:10:16.618Z,0.88
2023-01-06T04:12:44.351Z,0.60
2023-01-06T04:15:21.585Z,0.40
2023-01-06T04:17:49.871Z,0.57
2023-01-06T04:20:21.597Z,0.63
2023-01-06T04:22:50.393Z,0.57
2023-01-06T04:25:17.331Z,0.80
2023-01-06T04:27:44.575Z,0.70
2023-01-06T04:30:12.944Z,1.40
2023-01-06T04:32:39.966Z,0.60
2023-01-06T04:35:09.013Z,0.68
2023-01-06T04:37:35.988Z,1.08
2023-01-06T04:40:02.990Z,0.32
2023-01-06T04:42:29.783Z,1.45
2023-01-06T04:44:56.490Z,0.13
2023-01-06T04:47:23.313Z,0.73
2023-01-06T04:49:50.185Z,0.50
2023-01-06T04:52:17.028Z,0.20
2023-01-06T04:54:43.943Z,2.15
2023-01-06T04:57:10.835Z,0.45
2023-01-06T04:59:37.674Z,0.85
2023-01-06T05:02:04.489Z,0.40
2023-01-06T05:04:46.613Z,0.30
2023-01-06T05:07:14.112Z,0.25
2023-01-06T05:09:40.856Z,1.35
2023-01-06T05:12:08.003Z,3.67
2023-01-06T05:14:34.834Z,0.57
2023-01-06T05:17:01.719Z,1.35
2023-01-06T05:19:28.453Z,0.75
2023-01-06T05:21:55.277Z,0.68
2023-01-06T05:24:22.145Z,1.48
2023-01-06T05:26:49.280Z,0.40
2023-01-06T05:29:16.649Z,1.05
2023-01-06T05:31:43.848Z,1.08
2023-01-06T05:34:11.740Z,1.63
2023-01-06T05:36:38.587Z,0.35
2023-01-06T05:39:05.427Z,1.20
2023-01-06T05:41:32.237Z,0.32
2023-01-06T05:43:58.999Z,2.85
2023-01-06T05:46:25.722Z,0.43
2023-01-06T05:48:52.586Z,0.22
2023-01-06T05:51:19.332Z,0.50
2023-01-06T05:53:48.253Z,1.00
2023-01-06T05:56:18.030Z,0.63
2023-01-06T05:58:47.646Z,0.95
2023-01-06T06:01:22.520Z,0.25
2023-01-06T06:03:50.266Z,0.30
2023-01-06T06:06:18.085Z,0.20
2023-01-06T06:08:45.033Z,0.55
2023-01-06T06:11:14.676Z,1.05
2023-01-06T06:13:53.301Z,0.10
2023-01-06T06:16:23.119Z,1.33
2023-01-06T06:18:52.078Z,0.17
2023-01-06T06:21:22.011Z,0.40
2023-01-06T06:23:49.435Z,0.75
2023-01-06T06:26:16.643Z,1.45
2023-01-06T06:28:43.440Z,0.77
2023-01-06T06:31:13.798Z,1.33
2023-01-06T06:33:41.001Z,0.63
2023-01-06T06:36:08.832Z,1.45
2023-01-06T06:38:35.764Z,0.45
2023-01-06T06:41:02.697Z,1.00
2023-01-06T06:43:29.695Z,0.70
2023-01-06T06:45:56.901Z,0.57
2023-01-06T06:48:23.799Z,1.40
2023-01-06T06:51:06.313Z,1.38
2023-01-06T06:53:34.141Z,1.50
2023-01-06T06:56:01.197Z,1.42
2023-01-06T06:58:28.080Z,1.58
2023-01-06T07:00:55.053Z,1.02
2023-01-06T07:03:22.061Z,0.90
2023-01-06T07:05:50.661Z,0.30
2023-01-06T07:08:17.700Z,3.47
2023-01-06T07:10:44.939Z,0.77
2023-01-06T07:13:12.465Z,0.80
2023-01-06T07:15:39.567Z,0.98
2023-01-06T07:18:09.528Z,0.40
2023-01-06T07:20:38.960Z,0.85
2023-01-06T07:23:05.795Z,0.30
2023-01-06T07:25:33.191Z,1.17
2023-01-06T07:28:01.305Z,1.77
2023-01-06T07:32:54.856Z,36.25
2023-01-06T07:35:22.026Z,36.53
2023-01-06T07:37:49.065Z,27.65
2023-01-06T07:42:48.267Z,22.75
2023-01-06T07:45:14.954Z,13.98
2023-01-06T07:47:41.413Z,7.97
2023-01-06T07:50:08.008Z,5.45
2023-01-06T07:52:34.685Z,2.42
2023-01-06T07:55:01.191Z,2.63
2023-01-06T07:57:28.904Z,1.48
2023-01-06T07:59:55.645Z,2.58
2023-01-06T08:02:22.720Z,1.65
2023-01-06T08:04:49.792Z,4.00
2023-01-06T08:07:17.253Z,2.33
2023-01-06T08:09:43.878Z,2.03
2023-01-06T08:12:10.404Z,4.03
2023-01-06T08:14:36.877Z,7.70
2023-01-06T08:17:03.521Z,17.35
2023-01-06T08:19:30.422Z,22.65
2023-01-06T08:21:56.988Z,27.13
2023-01-06T08:24:23.471Z,20.90
2023-01-06T08:26:50.015Z,24.33
2023-01-06T08:29:16.564Z,16.58
2023-01-06T08:31:43.062Z,11.45
2023-01-06T08:34:09.614Z,9.45
2023-01-06T08:36:36.118Z,8.32
2023-01-06T08:39:02.864Z,7.00
2023-01-06T08:41:29.404Z,4.55
2023-01-06T08:43:55.883Z,3.05
2023-01-06T08:46:22.525Z,2.28
2023-01-06T08:48:49.270Z,2.28
2023-01-06T08:51:19.342Z,2.85
2023-01-06T08:53:45.962Z,1.65
2023-01-06T08:56:14.623Z,0.98
2023-01-06T08:58:41.733Z,1.05
2023-01-06T09:01:16.569Z,2.25
2023-01-06T09:03:43.397Z,1.50
2023-01-06T09:06:10.312Z,1.45
2023-01-06T09:08:36.964Z,1.48
2023-01-06T09:11:11.070Z,3.47
2023-01-06T09:13:38.218Z,0.55
2023-01-06T09:16:09.307Z,0.80
2023-01-06T09:18:36.317Z,0.77
2023-01-06T09:21:03.988Z,0.30
2023-01-06T09:23:31.302Z,0.20
2023-01-06T09:25:58.497Z,0.67
2023-01-06T09:28:26.190Z,0.40
2023-01-06T09:30:52.901Z,0.32
2023-01-06T09:33:19.410Z,0.60
2023-01-06T09:35:46.789Z,0.75
2023-01-06T09:38:14.293Z,0.77
2023-01-06T09:41:02.603Z,0.43
2023-01-06T09:43:35.088Z,0.13
2023-01-06T09:46:04.926Z,0.30
2023-01-06T09:48:38.372Z,0.32
2023-01-06T09:51:06.901Z,0.32
2023-01-06T09:53:43.789Z,0.90
2023-01-06T09:56:16.388Z,1.20
2023-01-06T09:58:56.406Z,0.45
2023-01-06T10:01:31.046Z,0.20
2023-01-06T10:03:57.798Z,0.30
2023-01-06T10:06:54.834Z,0.90
2023-01-06T10:09:38.336Z,0.75
2023-01-06T10:12:35.269Z,0.28
2023-01-06T10:15:14.666Z,0.32
2023-01-06T10:18:03.204Z,0.75
2023-01-06T10:20:54.472Z,0.85
2023-01-06T10:23:51.607Z,0.60
2023-01-06T10:26:32.735Z,0.65
2023-01-06T10:29:13.651Z,0.55
2023-01-06T10:31:43.757Z,0.43
2023-01-06T10:34:20.502Z,0.38
2023-01-06T10:36:54.838Z,0.28
2023-01-06T10:39:25.204Z,0.30
2023-01-06T10:42:19.360Z,0.17
2023-01-06T10:44:46.168Z,0.30
2023-01-06T10:47:25.450Z,0.80
2023-01-06T10:49:52.177Z,0.57
2023-01-06T10:52:20.207Z,0.30
2023-01-06T10:57:23.467Z,1.20
2023-01-06T11:00:08.897Z,0.90
2023-01-06T11:02:35.604Z,1.02
2023-01-06T11:05:02.394Z,1.48
2023-01-06T11:07:30.272Z,1.02
2023-01-06T11:09:57.628Z,0.45
2023-01-06T11:12:26.714Z,1.13
2023-01-06T11:14:58.578Z,0.22
2023-01-06T11:17:26.359Z,1.15
2023-01-06T11:20:18.843Z,1.00
2023-01-06T11:22:45.442Z,0.82
2023-01-06T11:25:20.732Z,0.75
2023-01-06T11:28:09.007Z,0.32
2023-01-06T11:30:42.924Z,0.50
2023-01-06T11:33:24.636Z,0.80
2023-01-06T11:35:52.430Z,0.52
2023-01-06T11:38:21.299Z,1.10
2023-01-06T11:40:52.667Z,2.08
2023-01-06T11:43:25.617Z,0.85
2023-01-06T11:45:58.108Z,1.55
2023-01-06T11:48:33.057Z,0.75
2023-01-06T11:51:07.739Z,0.73
2023-01-06T11:53:34.826Z,0.68
2023-01-06T11:56:04.233Z,0.50
2023-01-06T11:58:54.407Z,0.30
2023-01-06T12:01:33.383Z,1.75
2023-01-06T12:04:34.973Z,0.40
2023-01-06T12:07:26.441Z,1.25
2023-01-06T12:09:58.473Z,0.50
2023-01-06T12:12:27.673Z,0.38
2023-01-06T12:14:55.338Z,0.90
2023-01-06T12:17:40.069Z,0.45
2023-01-06T12:20:19.368Z,0.98
2023-01-06T12:22:49.817Z,0.85
2023-01-06T12:25:21.728Z,0.88
2023-01-06T12:27:58.920Z,0.95
2023-01-06T12:30:46.623Z,0.77
2023-01-06T12:33:24.369Z,0.80
2023-01-06T12:35:55.601Z,0.98
2023-01-06T12:38:39.239Z,1.02
2023-01-06T12:41:15.886Z,1.05
2023-01-06T12:43:48.872Z,0.88
2023-01-06T12:46:24.878Z,1.17
2023-01-06T12:48:56.932Z,4.82
2023-01-06T12:51:35.776Z,4.47
2023-01-06T12:54:10.198Z,0.50
2023-01-06T12:57:05.097Z,0.90
2023-01-06T12:59:37.496Z,1.15
2023-01-06T13:02:31.309Z,0.30
2023-01-06T13:05:26.069Z,0.98
2023-01-06T13:08:26.501Z,0.55
2023-01-06T13:11:07.881Z,1.15
2023-01-06T13:13:51.524Z,0.75
2023-01-06T13:16:30.358Z,1.25
2023-01-06T13:19:25.673Z,0.77
2023-01-06T13:21:59.330Z,0.88
2023-01-06T13:24:56.594Z,0.98
2023-01-06T13:27:23.105Z,2.00
2023-01-06T13:30:14.485Z,0.98
2023-01-06T13:33:18.867Z,0.57
2023-01-06T13:36:10.229Z,0.63
2023-01-06T13:38:58.517Z,0.65
2023-01-06T13:41:33.916Z,2.00
2023-01-06T13:44:02.419Z,7.60
2023-01-06T13:46:30.806Z,2.63
2023-01-06T13:49:04.682Z,0.70
2023-01-06T13:51:40.695Z,1.17
2023-01-06T13:54:07.368Z,1.23
2023-01-06T13:56:35.339Z,1.35
2023-01-06T13:59:28.403Z,0.82
2023-01-06T14:01:55.092Z,1.35
2023-01-06T14:04:30.676Z,2.05
2023-01-06T14:06:57.422Z,0.82
2023-01-06T14:09:24.386Z,0.93
2023-01-06T14:11:51.168Z,1.08
2023-01-06T14:14:24.391Z,1.67
2023-01-06T14:16:52.705Z,0.73
2023-01-06T14:19:21.805Z,0.90
2023-01-06T14:21:50.839Z,1.13
2023-01-06T14:24:30.839Z,1.25
2023-01-06T14:27:02.707Z,0.93
2023-01-06T14:29:41.451Z,0.63
2023-01-06T14:32:09.121Z,0.80
2023-01-06T14:34:38.491Z,0.57
2023-01-06T14:37:11.669Z,0.40
2023-01-06T14:39:46.730Z,0.93
2023-01-06T14:42:19.556Z,0.50
2023-01-06T14:44:52.134Z,0.20
2023-01-06T14:47:29.160Z,0.57
2023-01-06T14:50:04.432Z,0.40
2023-01-06T14:52:48.170Z,0.35
2023-01-06T14:55:18.925Z,0.20
2023-01-06T14:57:45.743Z,0.38
2023-01-06T15:00:20.128Z,0.57
2023-01-06T15:02:50.264Z,0.20
2023-01-06T15:05:32.796Z,0.22
2023-01-06T15:08:06.929Z,1.17
2023-01-06T15:10:40.380Z,1.45
2023-01-06T15:13:24.118Z,1.05
2023-01-06T15:16:23.217Z,0.73
2023-01-06T15:18:50.587Z,0.50
2023-01-06T15:21:17.190Z,0.70
2023-01-06T15:23:47.900Z,0.17
2023-01-06T15:26:20.442Z,0.17
2023-01-06T15:29:05.408Z,0.90
2023-01-06T15:31:34.837Z,0.47
2023-01-06T15:34:06.326Z,0.30
2023-01-06T15:36:33.644Z,0.52
2023-01-06T15:39:04.578Z,0.70
2023-01-06T15:41:32.826Z,0.77
2023-01-06T15:44:01.616Z,2.90
2023-01-06T15:46:38.962Z,0.50
2023-01-06T15:49:06.393Z,0.80
2023-01-06T15:51:34.585Z,1.93
2023-01-06T15:56:29.836Z,0.47
2023-01-06T15:58:59.212Z,0.63
2023-01-06T16:01:25.956Z,0.30
2023-01-06T16:03:55.231Z,0.63
2023-01-06T16:06:32.787Z,0.20
2023-01-06T16:09:20.939Z,0.20
2023-01-06T16:11:58.550Z,0.30
2023-01-06T16:14:27.765Z,0.30
2023-01-06T16:17:02.480Z,0.22
2023-01-06T16:19:29.641Z,0.65
2023-01-06T16:21:56.691Z,0.50
2023-01-06T16:24:27.484Z,0.52
2023-01-06T16:27:02.775Z,0.47
2023-01-06T16:29:30.448Z,0.82
2023-01-06T16:32:00.406Z,0.30
2023-01-06T16:34:31.410Z,0.40
2023-01-06T16:37:00.200Z,1.00
2023-01-06T16:39:27.775Z,0.52
2023-01-06T16:42:00.318Z,0.38
2023-01-06T16:44:27.735Z,1.15
2023-01-06T16:46:54.250Z,0.43
2023-01-06T16:49:22.630Z,1.38
2023-01-06T16:51:49.468Z,0.90
2023-01-06T16:54:16.869Z,1.60
2023-01-06T16:56:43.554Z,1.35
2023-01-06T16:59:12.752Z,1.88
2023-01-06T17:01:39.652Z,1.70
2023-01-06T17:04:06.327Z,1.50
2023-01-06T17:06:32.965Z,1.08
2023-01-06T17:09:09.855Z,1.00
2023-01-06T17:11:36.392Z,3.42
2023-01-06T17:14:09.701Z,1.88
2023-01-06T17:16:40.138Z,4.43
2023-01-06T17:19:18.218Z,1.60
2023-01-06T17:21:45.635Z,2.50
2023-01-06T17:24:16.169Z,2.90
2023-01-06T17:27:07.915Z,1.35
2023-01-06T17:29:36.848Z,0.82
2023-01-06T17:32:13.866Z,1.83
2023-01-06T17:34:40.407Z,1.10
2023-01-06T17:37:13.181Z,1.25
2023-01-06T17:39:41.721Z,4.40
2023-01-06T17:42:08.164Z,2.58
2023-01-06T17:44:40.183Z,1.75
2023-01-06T17:47:14.756Z,2.80
2023-01-06T17:49:43.940Z,1.33
2023-01-06T17:52:28.324Z,1.70
2023-01-06T17:54:58.760Z,1.35
2023-01-06T17:57:26.108Z,2.95
2023-01-06T17:59:56.336Z,2.77
2023-01-06T18:02:34.794Z,1.90
2023-01-06T18:05:31.346Z,1.52
2023-01-06T18:08:07.093Z,1.23
2023-01-06T18:10:35.824Z,1.02
2023-01-06T18:13:32.153Z,2.20
2023-01-06T18:16:00.311Z,1.05
2023-01-06T18:18:35.338Z,1.92
2023-01-06T18:21:17.196Z,1.90
2023-01-06T18:23:49.003Z,2.05
2023-01-06T18:26:35.890Z,1.65
2023-01-06T18:29:12.643Z,2.22
2023-01-06T18:31:40.228Z,3.65
2023-01-06T18:34:38.636Z,2.35
2023-01-06T18:37:05.251Z,1.83
2023-01-06T18:39:43.364Z,1.95
2023-01-06T18:42:21.865Z,1.90
2023-01-06T18:44:48.425Z,2.42
2023-01-06T18:47:21.415Z,2.70
2023-01-06T18:49:49.673Z,3.35
2023-01-06T18:54:58.590Z,1.88
2023-01-06T18:57:29.801Z,2.93
2023-01-06T19:00:11.684Z,2.35
2023-01-06T19:02:39.333Z,0.77
2023-01-06T19:05:11.871Z,0.70
2023-01-06T19:07:38.364Z,2.00
2023-01-06T19:10:22.391Z,1.35
2023-01-06T19:12:48.847Z,1.45
2023-01-06T19:15:24.097Z,4.03
2023-01-06T19:17:50.835Z,2.70
2023-01-06T19:20:26.779Z,2.10
2023-01-06T19:22:53.245Z,1.23
2023-01-06T19:25:26.471Z,2.38
2023-01-06T19:27:57.135Z,4.28
2023-01-06T19:30:26.623Z,1.85
2023-01-06T19:32:53.171Z,1.35
2023-01-06T19:35:24.122Z,0.85
2023-01-06T19:37:55.246Z,1.50
2023-01-06T19:40:26.444Z,0.80
2023-01-06T19:42:57.690Z,0.60
2023-01-06T19:45:29.853Z,1.00
2023-01-06T19:47:58.848Z,0.65
2023-01-06T19:50:25.370Z,0.55
2023-01-06T19:52:59.212Z,1.40
2023-01-06T19:55:27.800Z,2.28
2023-01-06T19:58:15.418Z,2.00
2023-01-06T20:00:49.725Z,1.40
2023-01-06T20:03:34.856Z,0.60
2023-01-06T20:06:02.142Z,1.67
2023-01-06T20:08:28.922Z,1.10
2023-01-06T20:10:55.464Z,1.33
2023-01-06T20:13:22.115Z,0.70
2023-01-06T20:15:48.597Z,1.10
2023-01-06T20:18:15.124Z,1.88
2023-01-06T20:20:41.631Z,1.30
2023-01-06T20:23:08.171Z,1.25
2023-01-06T20:25:34.640Z,3.38
2023-01-06T20:28:01.205Z,0.90
2023-01-06T20:30:27.705Z,1.35
2023-01-06T20:32:54.226Z,1.35
2023-01-06T20:35:20.940Z,1.33
2023-01-06T20:37:47.468Z,2.50
2023-01-06T20:40:14.146Z,2.13
2023-01-06T20:42:40.684Z,1.83
2023-01-06T20:45:07.833Z,2.15
2023-01-06T20:47:34.397Z,0.90
2023-01-06T20:50:00.915Z,1.17
2023-01-06T20:52:27.504Z,1.73
2023-01-06T20:54:54.087Z,2.05
2023-01-06T20:57:20.595Z,1.08
2023-01-06T20:59:47.171Z,1.98
2023-01-06T21:02:13.780Z,1.83
2023-01-06T21:04:40.343Z,2.58
2023-01-06T21:07:06.918Z,3.42
2023-01-06T21:09:33.485Z,1.00
2023-01-06T21:12:00.012Z,2.30
2023-01-06T21:14:26.590Z,1.92
2023-01-06T21:16:53.144Z,1.30
2023-01-06T21:19:19.710Z,1.98
2023-01-06T21:21:46.178Z,3.33
2023-01-06T21:24:12.722Z,2.20
2023-01-06T21:26:39.285Z,1.98
2023-01-06T21:29:05.895Z,1.73
2023-01-06T21:31:32.588Z,2.47
2023-01-06T21:33:59.230Z,2.67
2023-01-06T21:36:25.829Z,2.35
2023-01-06T21:38:52.304Z,2.63
2023-01-06T21:41:18.808Z,2.50
2023-01-06T21:43:45.324Z,2.10
2023-01-06T21:46:11.830Z,1.92
2023-01-06T21:48:38.443Z,3.28
2023-01-06T21:51:05.093Z,2.67
2023-01-06T21:53:32.228Z,3.30
2023-01-06T21:55:59.347Z,2.58
2023-01-06T21:58:25.956Z,2.85
2023-01-06T22:00:52.524Z,3.13
2023-01-06T22:03:19.141Z,1.58
2023-01-06T22:05:46.302Z,2.33
2023-01-06T22:08:13.221Z,1.50
2023-01-06T22:10:42.589Z,1.63
2023-01-06T22:13:12.210Z,2.50
2023-01-06T22:15:39.150Z,2.42
2023-01-06T22:18:07.363Z,2.38
2023-01-06T22:20:34.335Z,2.35
2023-01-06T22:23:03.576Z,2.60
2023-01-06T22:25:30.115Z,3.70
2023-01-06T22:27:56.869Z,3.10
2023-01-06T22:30:23.417Z,3.25
2023-01-06T22:32:49.935Z,2.00
2023-01-06T22:35:17.517Z,4.85
2023-01-06T22:37:44.630Z,1.75
2023-01-06T22:40:13.486Z,2.47
2023-01-06T22:42:40.281Z,2.00
2023-01-06T22:45:08.117Z,2.33
2023-01-06T22:47:34.715Z,1.35
2023-01-06T22:50:01.303Z,1.25
2023-01-06T22:52:28.514Z,1.40
2023-01-06T22:54:55.045Z,1.37
2023-01-06T22:57:21.572Z,1.33
2023-01-06T22:59:48.125Z,1.15
2023-01-06T23:02:14.824Z,1.65
2023-01-06T23:04:41.440Z,1.52
2023-01-06T23:07:08.013Z,1.60
2023-01-06T23:09:34.632Z,2.83
2023-01-06T23:12:01.080Z,2.10
2023-01-06T23:14:27.684Z,3.42
2023-01-06T23:16:54.206Z,1.42
2023-01-06T23:19:20.687Z,2.97
2023-01-06T23:21:47.193Z,2.45
2023-01-06T23:24:14.010Z,1.35
2023-01-06T23:26:43.343Z,1.33
2023-01-06T23:29:10.617Z,1.77
2023-01-06T23:31:40.270Z,1.33
2023-01-06T23:34:09.325Z,2.58
2023-01-06T23:36:36.510Z,1.95
2023-01-06T23:39:05.130Z,1.52
2023-01-06T23:41:34.053Z,1.75
2023-01-06T23:44:01.351Z,1.48
2023-01-06T23:46:31.378Z,0.93
2023-01-06T23:48:58.309Z,3.53
2023-01-06T23:51:26.050Z,1.95
2023-01-06T23:53:53.127Z,0.90
2023-01-06T23:56:22.009Z,3.17
2023-01-06T23:58:51.546Z,1.13
